Aviation Digital Data Service (ADDS)

Output produced by METARs form (0606 UTC 30 July 2015)
found at http://aviationweather.gov/adds/metars/
 
KRDU 300532Z 3006/3106 VRB05KT P6SM FEW050 SCT150 SCT250 
     TEMPO 3010/3012 4SM BR 
     FM301300 23004KT P6SM SCT050 SCT250 
     FM302100 VRB05KT P6SM VCSH BKN050 OVC100 
     PROB30 3022/3101 6SM TS BKN050CB